Terminal Aerodrome Forecast
Issued by NWS Denver/Boulder, CO

Home | Current Version | Previous Version | Text Only | Print | Product List | Glossary On
Versions: 1 2 3 4 5 6 7 8 9 10 11 12 13 14 15 16 17 18 19 20 21 22 23 24 25 26 27 28 29 30 31 32 33 34 35 36 37 38 39 40 41 42 43 44 45 46 47 48 49 50
000
FTUS45 KBOU 061325 AAB
TAFDEN
TAF AMD
KDEN 061325Z 0613/0718 02010KT P6SM VCSH SCT012 BKN030 OVC040
      TEMPO 0613/0615 5SM -RA BR SCT007 OVC012
     FM061500 03011KT P6SM VCSH BKN022 OVC035
      TEMPO 0615/0618 -SHRA OVC018
     FM062000 04010KT P6SM VCTS SCT035CB BKN050
      TEMPO 0621/0701 -SHRA BKN035
     FM070200 07009KT P6SM VCSH SCT040 BKN070
     FM071000 VRB05KT P6SM SCT025 BKN040
     FM071600 12008KT P6SM VCSH SCT035 OVC050
      TEMPO 0716/0718 -SHRA BKN035=

USA.gov is the U.S. government's official web portal to all federal, state and local government web resources and services.